Time;durP1;ratioP1;P1;durP2;ratioP2;P2;SDS_P1;SDS_P2;PMS_P1;PMS_P2;Temp;Humidity;BMP_temperature;BMP_pressure;BME280_temperature;BME280_humidity;BME280_pressure;Samples;Min_cycle;Max_cycle;Signal;HPM_P1;HPM_P2
2021/11/02 00:01:52;;;;;;;4.55;1.70;;;9.70;99.90;;;;;;5070971;28;20862;-86
2021/11/02 00:04:18;;;;;;;5.80;1.67;;;9.90;99.90;;;;;;5073466;28;20044;-87
2021/11/02 00:06:44;;;;;;;7.05;1.58;;;;;;;;;;5087961;28;20041;-85
2021/11/02 00:09:12;;;;;;;7.05;2.40;;;9.70;99.90;;;;;;5073865;28;20047;-84
2021/11/02 00:11:38;;;;;;;5.35;1.90;;;9.70;99.90;;;;;;5069510;28;20088;-85
2021/11/02 00:14:08;;;;;;;4.15;1.63;;;7.60;99.90;;;;;;5075027;28;20497;-86
2021/11/02 00:16:33;;;;;;;3.15;1.40;;;9.70;99.90;;;;;;5073149;28;20024;-86
2021/11/02 00:19:05;;;;;;;4.88;1.85;;;9.70;99.90;;;;;;5076841;28;20500;-87
2021/11/02 00:21:33;;;;;;;5.18;1.80;;;9.70;99.90;;;;;;5074535;28;20498;-87
2021/11/02 00:24:15;;;;;;;7.25;2.35;;;10.20;99.90;;;;;;5072785;28;20064;-91
2021/11/02 00:26:41;;;;;;;3.88;2.08;;;9.70;99.90;;;;;;5072170;28;20036;-84
2021/11/02 00:29:08;;;;;;;4.72;1.80;;;9.70;99.90;;;;;;5076743;28;20066;-87
2021/11/02 00:31:35;;;;;;;6.88;2.08;;;10.60;99.90;;;;;;5075086;28;20480;-86
2021/11/02 00:34:01;;;;;;;7.55;2.38;;;11.70;99.90;;;;;;5075415;28;20119;-87
2021/11/02 00:36:27;;;;;;;4.78;2.03;;;10.00;99.90;;;;;;5073428;28;20159;-87
2021/11/02 00:38:53;;;;;;;4.97;1.92;;;;;;;;;;5070933;28;20056;-88
2021/11/02 00:41:18;;;;;;;5.32;1.92;;;9.80;99.90;;;;;;5071486;28;20569;-87
2021/11/02 00:43:46;;;;;;;5.35;2.55;;;;;;;;;;5073849;28;20044;-85
2021/11/02 00:46:12;;;;;;;6.80;2.53;;;9.80;99.90;;;;;;5068480;28;20257;-89
2021/11/02 00:48:38;;;;;;;6.13;2.00;;;;;;;;;;5071482;28;20029;-87
2021/11/02 00:51:05;;;;;;;5.28;2.20;;;;;;;;;;5070108;28;20512;-87
2021/11/02 00:53:31;;;;;;;5.57;2.63;;;9.80;99.90;;;;;;5068645;28;20050;-87
2021/11/02 00:55:57;;;;;;;6.68;2.45;;;9.80;99.90;;;;;;5069505;28;20695;-87
2021/11/02 00:58:25;;;;;;;6.25;2.80;;;;;;;;;;5070747;28;20036;-87
2021/11/02 01:00:52;;;;;;;8.07;2.97;;;9.70;99.90;;;;;;5068009;28;20032;-87
2021/11/02 01:03:18;;;;;;;5.75;2.88;;;11.90;99.90;;;;;;5069455;28;20727;-84
2021/11/02 01:05:44;;;;;;;5.40;2.80;;;9.70;99.90;;;;;;5073838;28;20075;-89
2021/11/02 01:08:09;;;;;;;5.20;2.70;;;9.60;99.90;;;;;;5070386;28;20513;-89
2021/11/02 01:10:35;;;;;;;8.10;2.85;;;9.60;99.90;;;;;;5070861;28;20359;-87
2021/11/02 01:13:01;;;;;;;9.40;3.25;;;9.40;99.90;;;;;;5070462;28;20020;-88
2021/11/02 01:15:29;;;;;;;13.15;3.60;;;9.50;99.90;;;;;;5068967;28;20027;-87
2021/11/02 01:17:56;;;;;;;5.43;2.83;;;10.50;99.90;;;;;;5067520;28;20552;-87
2021/11/02 01:20:23;;;;;;;10.10;3.22;;;11.90;99.90;;;;;;5072475;28;20035;-86
2021/11/02 01:22:48;;;;;;;6.70;2.92;;;10.30;99.90;;;;;;5070077;28;20037;-87
2021/11/02 01:25:15;;;;;;;7.35;3.70;;;11.30;99.90;;;;;;5071056;28;20779;-87
2021/11/02 01:27:41;;;;;;;7.15;3.35;;;9.40;99.90;;;;;;5072055;28;20027;-88
2021/11/02 01:30:08;;;;;;;8.00;3.63;;;9.40;99.90;;;;;;5090717;28;20024;-87
2021/11/02 01:32:34;;;;;;;6.00;3.08;;;9.40;99.90;;;;;;5067640;28;20100;-85
2021/11/02 01:35:00;;;;;;;11.18;3.63;;;9.40;99.90;;;;;;5068464;28;20064;-87
2021/11/02 01:37:31;;;;;;;10.40;3.47;;;9.90;99.90;;;;;;5069046;28;20025;-86
2021/11/02 01:39:57;;;;;;;8.52;3.47;;;9.50;99.90;;;;;;5088111;28;20382;-83
2021/11/02 01:42:25;;;;;;;9.35;4.32;;;9.50;99.90;;;;;;5074136;28;20025;-85
2021/11/02 01:44:53;;;;;;;10.60;4.13;;;9.40;99.90;;;;;;5071420;28;20020;-85
2021/11/02 01:47:20;;;;;;;8.30;3.60;;;11.60;99.90;;;;;;5072385;28;20048;-87
2021/11/02 01:49:47;;;;;;;9.77;3.67;;;11.80;99.90;;;;;;5072284;28;20171;-87
2021/11/02 01:52:12;;;;;;;7.93;4.03;;;9.70;99.90;;;;;;5088158;28;20032;-86
2021/11/02 01:54:39;;;;;;;8.63;3.80;;;9.20;99.90;;;;;;5072067;28;20035;-88
2021/11/02 01:57:05;;;;;;;7.72;3.75;;;9.50;99.90;;;;;;5070454;28;20091;-86
2021/11/02 01:59:34;;;;;;;6.97;3.80;;;9.50;99.90;;;;;;5072929;28;20048;-84
2021/11/02 02:02:11;;;;;;;7.10;3.50;;;9.50;99.90;;;;;;5071265;28;20059;-87
2021/11/02 02:04:48;;;;;;;6.57;3.42;;;9.80;99.90;;;;;;5066986;28;20021;-85
2021/11/02 02:07:35;;;;;;;9.55;4.72;;;9.50;99.90;;;;;;5072457;28;20035;-85
2021/11/02 02:10:22;;;;;;;10.43;3.60;;;9.50;99.90;;;;;;5069459;28;20512;-87
2021/11/02 02:13:01;;;;;;;7.93;3.28;;;9.50;99.90;;;;;;5070221;28;20798;-84
2021/11/02 02:15:39;;;;;;;5.80;3.83;;;9.50;99.90;;;;;;5063837;28;23144;-87
2021/11/02 02:18:20;;;;;;;7.10;3.60;;;9.50;99.90;;;;;;5076470;28;20025;-87
2021/11/02 02:21:31;;;;;;;9.20;3.70;;;9.50;99.90;;;;;;5074529;28;20021;-87
2021/11/02 02:24:14;;;;;;;8.50;3.63;;;9.50;99.90;;;;;;5055077;28;20525;-88
2021/11/02 02:27:07;;;;;;;7.82;3.25;;;9.60;99.90;;;;;;5077462;28;20156;-89
2021/11/02 02:29:37;;;;;;;7.22;2.72;;;9.60;99.90;;;;;;5077231;28;20059;-87
2021/11/02 02:32:04;;;;;;;8.07;3.35;;;9.60;99.90;;;;;;5074395;28;20059;-87
2021/11/02 02:34:31;;;;;;;6.97;2.95;;;9.60;99.90;;;;;;5080531;28;20064;-87
2021/11/02 02:36:58;;;;;;;8.85;3.40;;;10.70;99.90;;;;;;5074996;28;20024;-87
2021/11/02 02:39:26;;;;;;;6.75;3.17;;;11.60;99.90;;;;;;5076101;28;20025;-87
2021/11/02 02:41:53;;;;;;;9.43;3.03;;;11.60;99.90;;;;;;5072556;28;20021;-87
2021/11/02 02:44:20;;;;;;;10.52;3.08;;;10.10;99.90;;;;;;5094586;28;20059;-88
2021/11/02 02:46:47;;;;;;;7.90;3.00;;;11.20;99.90;;;;;;5077283;28;20092;-86
2021/11/02 02:49:13;;;;;;;7.85;2.85;;;10.00;99.90;;;;;;5075843;28;20186;-88
2021/11/02 02:51:43;;;;;;;6.85;2.60;;;10.60;99.90;;;;;;5082659;28;20122;-89
2021/11/02 02:54:11;;;;;;;7.60;2.70;;;11.10;99.90;;;;;;5078706;28;20059;-86
2021/11/02 02:56:43;;;;;;;12.63;3.60;;;11.80;99.90;;;;;;5078523;28;20032;-91
2021/11/02 02:59:09;;;;;;;7.57;2.55;;;12.20;99.90;;;;;;5080628;28;20032;-86
2021/11/02 03:01:36;;;;;;;6.05;2.25;;;9.00;99.90;;;;;;5079358;28;20505;-88
2021/11/02 03:04:13;;;;;;;6.22;2.42;;;11.20;99.90;;;;;;5082361;28;20051;-86
2021/11/02 03:06:42;;;;;;;4.47;2.33;;;11.50;99.90;;;;;;5093838;28;20080;-88
2021/11/02 03:09:08;;;;;;;6.68;2.20;;;9.30;99.90;;;;;;5093151;28;20076;-88
2021/11/02 03:11:35;;;;;;;9.75;2.80;;;7.50;99.90;;;;;;5093349;28;20029;-87
2021/11/02 03:14:05;;;;;;;5.28;2.33;;;9.20;99.90;;;;;;5093125;28;20037;-87
2021/11/02 03:16:56;;;;;;;4.05;1.83;;;9.50;99.90;;;;;;5089648;28;20012;-87
2021/11/02 03:56:17;;;;;;;8.30;2.33;;;9.10;99.90;;;;;;5071126;28;20039;-89
2021/11/02 04:01:38;;;;;;;8.07;2.17;;;9.10;99.90;;;;;;5071457;28;20028;-88
2021/11/02 04:23:44;;;;;;;6.25;1.90;;;9.10;99.90;;;;;;5070629;28;20054;-85
2021/11/02 05:56:32;;;;;;;6.70;2.28;;;8.80;99.90;;;;;;5070672;28;20047;-86
2021/11/02 05:59:12;;;;;;;7.43;2.30;;;9.60;99.90;;;;;;5069824;28;20116;-88
2021/11/02 06:07:22;;;;;;;7.75;2.60;;;8.70;99.90;;;;;;5071359;28;20079;-89
2021/11/02 06:09:57;;;;;;;9.10;2.05;;;8.70;99.90;;;;;;5061495;28;20109;-89
2021/11/02 06:29:15;;;;;;;9.77;2.30;;;8.90;99.90;;;;;;5068769;28;20035;-86
2021/11/02 06:31:50;;;;;;;7.03;2.07;;;8.90;99.90;;;;;;5070515;28;20119;-86
2021/11/02 06:34:37;;;;;;;8.25;2.85;;;8.70;99.90;;;;;;5064566;28;20313;-86
2021/11/02 06:40:08;;;;;;;5.65;2.10;;;8.80;99.90;;;;;;5064421;28;20453;-83
2021/11/02 06:45:34;;;;;;;4.80;1.83;;;11.00;99.90;;;;;;5071249;28;20024;-85
2021/11/02 06:56:43;;;;;;;3.75;1.75;;;10.20;99.90;;;;;;5058478;28;20044;-86
2021/11/02 07:19:45;;;;;;;5.43;2.43;;;8.80;99.90;;;;;;5077015;28;20020;-85
2021/11/02 08:46:00;;;;;;;5.50;1.90;;;9.20;99.90;;;;;;5071351;28;20038;-85
2021/11/02 08:48:27;;;;;;;2.75;1.50;;;9.30;99.90;;;;;;5076275;28;20107;-85
2021/11/02 08:50:55;;;;;;;5.07;1.85;;;9.20;99.90;;;;;;5071355;28;20059;-86
2021/11/02 08:53:24;;;;;;;2.38;1.35;;;10.80;99.90;;;;;;5073157;28;20029;-85
2021/11/02 08:55:51;;;;;;;2.67;1.42;;;9.30;99.90;;;;;;5071263;28;20021;-84
2021/11/02 08:58:25;;;;;;;3.67;1.40;;;10.20;99.90;;;;;;5077106;28;20036;-88
2021/11/02 09:01:02;;;;;;;3.78;1.63;;;9.20;99.90;;;;;;5074613;28;20363;-87
2021/11/02 09:03:36;;;;;;;4.38;1.60;;;9.20;99.90;;;;;;5088499;28;20024;-87
2021/11/02 09:06:08;;;;;;;3.00;1.30;;;9.80;99.90;;;;;;5073054;28;20067;-85
2021/11/02 09:08:46;;;;;;;3.20;1.25;;;9.30;99.90;;;;;;5077312;28;20036;-84
2021/11/02 09:11:13;;;;;;;4.38;1.75;;;9.30;99.90;;;;;;5090113;28;20029;-85
2021/11/02 09:13:48;;;;;;;1.63;1.10;;;9.40;99.90;;;;;;5081439;28;20025;-86
2021/11/02 09:16:16;;;;;;;4.05;1.30;;;9.40;99.90;;;;;;5074804;28;20033;-85
2021/11/02 09:18:45;;;;;;;3.08;1.30;;;10.50;99.90;;;;;;5074592;28;20031;-89
2021/11/02 09:21:12;;;;;;;4.03;1.75;;;10.50;99.90;;;;;;5071041;28;20021;-87
2021/11/02 09:23:42;;;;;;;3.08;1.30;;;9.80;99.90;;;;;;5075063;28;20537;-86
2021/11/02 09:26:11;;;;;;;2.78;1.42;;;9.40;99.90;;;;;;5070493;28;20675;-86
2021/11/02 09:28:37;;;;;;;2.97;1.55;;;12.00;99.90;;;;;;5076475;28;20119;-87
2021/11/02 09:31:06;;;;;;;3.20;1.38;;;11.00;99.90;;;;;;5074290;28;20090;-84
2021/11/02 09:33:32;;;;;;;2.97;1.50;;;9.40;99.90;;;;;;5076928;28;20029;-84
2021/11/02 09:36:01;;;;;;;1.13;1.00;;;9.40;99.90;;;;;;5072930;28;20032;-87
2021/11/02 09:38:37;;;;;;;2.92;1.70;;;9.30;99.90;;;;;;5073878;28;20020;-84
2021/11/02 09:41:23;;;;;;;2.63;1.30;;;10.90;99.90;;;;;;5074079;28;20035;-87
2021/11/02 09:44:27;;;;;;;3.13;1.10;;;9.30;99.90;;;;;;5088881;28;20028;-85
2021/11/02 09:47:25;;;;;;;2.83;1.10;;;9.20;99.90;;;;;;5069645;28;20088;-89
2021/11/02 09:50:29;;;;;;;4.10;1.30;;;9.20;99.90;;;;;;5066558;28;20029;-87
2021/11/02 09:53:18;;;;;;;2.95;1.10;;;9.10;99.90;;;;;;5087247;28;20036;-87
2021/11/02 09:56:02;;;;;;;2.97;1.27;;;9.20;99.90;;;;;;5081091;28;20048;-87
2021/11/02 09:58:57;;;;;;;2.90;1.25;;;9.30;99.90;;;;;;5071003;28;20549;-87
2021/11/02 10:01:31;;;;;;;3.63;1.17;;;9.20;99.90;;;;;;5087381;28;20159;-89
2021/11/02 10:04:05;;;;;;;1.20;0.90;;;9.40;99.90;;;;;;5091936;28;20038;-88
2021/11/02 10:07:06;;;;;;;1.88;0.90;;;9.50;99.90;;;;;;5103993;28;20052;-88
2021/11/02 10:09:34;;;;;;;;;;;9.60;99.90;;;;;;5106668;28;20029;-85
2021/11/02 10:12:13;;;;;;;2.17;1.10;;;9.60;99.90;;;;;;5105805;28;19908;-86
2021/11/02 10:14:50;;;;;;;2.22;1.10;;;9.60;99.90;;;;;;5068114;28;20029;-85
2021/11/02 10:17:39;;;;;;;3.25;1.17;;;9.60;99.90;;;;;;5066065;28;20059;-85
2021/11/02 10:20:26;;;;;;;1.85;1.10;;;9.50;99.90;;;;;;5068918;28;20044;-86
2021/11/02 10:23:12;;;;;;;2.25;1.15;;;9.50;99.90;;;;;;5068491;28;20024;-86
2021/11/02 10:26:00;;;;;;;3.80;1.10;;;9.40;99.90;;;;;;5084985;28;20028;-89
2021/11/02 10:29:04;;;;;;;3.53;1.48;;;9.40;99.90;;;;;;5072931;28;20020;-86
2021/11/02 10:31:34;;;;;;;2.50;1.25;;;9.40;99.90;;;;;;5070974;28;20025;-87
2021/11/02 10:34:11;;;;;;;1.90;1.10;;;9.30;99.90;;;;;;5070362;28;20036;-84
2021/11/02 10:36:51;;;;;;;2.67;1.15;;;9.30;99.90;;;;;;5073582;28;20095;-88
2021/11/02 10:39:28;;;;;;;3.78;1.13;;;9.30;99.90;;;;;;5077104;28;20017;-88
2021/11/02 10:42:32;;;;;;;2.03;0.90;;;9.30;99.90;;;;;;5069760;28;20029;-88
2021/11/02 10:45:00;;;;;;;1.27;0.93;;;9.30;99.90;;;;;;5072176;28;20032;-84
2021/11/02 10:47:58;;;;;;;4.32;1.30;;;9.40;99.90;;;;;;5094744;28;20047;-86
2021/11/02 10:50:28;;;;;;;2.35;1.05;;;9.60;99.90;;;;;;5071081;28;20068;-87
2021/11/02 10:52:58;;;;;;;1.48;0.93;;;9.40;99.90;;;;;;5079821;28;20024;-84
2021/11/02 10:56:06;;;;;;;2.33;1.00;;;11.30;99.90;;;;;;5068620;28;20494;-86
2021/11/02 10:58:41;;;;;;;3.08;1.10;;;9.50;99.90;;;;;;4986433;28;20034;-86
2021/11/02 11:01:12;;;;;;;1.60;1.00;;;9.50;99.90;;;;;;5064982;28;20435;-86
2021/11/02 11:03:38;;;;;;;;;;;9.50;99.90;;;;;;5077447;28;20031;-84
2021/11/02 11:06:06;;;;;;;2.20;1.30;;;10.10;99.90;;;;;;5071894;28;19923;-85
2021/11/02 11:08:35;;;;;;;2.92;1.30;;;9.60;99.90;;;;;;5071924;28;20184;-85
2021/11/02 11:11:02;;;;;;;3.15;1.30;;;;;;;;;;5076108;28;20028;-86
2021/11/02 11:13:30;;;;;;;2.13;1.20;;;11.00;99.90;;;;;;5071447;28;20032;-85
2021/11/02 11:16:16;;;;;;;2.08;1.20;;;9.70;99.90;;;;;;5080353;28;20039;-88
2021/11/02 11:18:51;;;;;;;3.63;1.48;;;9.80;99.90;;;;;;5084800;28;20020;-88
2021/11/02 11:21:18;;;;;;;1.80;1.10;;;10.10;99.90;;;;;;5089680;28;20052;-86
2021/11/02 11:23:49;;;;;;;3.15;1.45;;;9.90;99.90;;;;;;5086615;28;20039;-86
2021/11/02 11:26:15;;;;;;;;;;;9.90;99.90;;;;;;5086243;28;20028;-87
2021/11/02 11:28:42;;;;;;;3.30;1.70;;;9.80;99.90;;;;;;5078666;28;19919;-86
2021/11/02 11:31:08;;;;;;;4.28;1.70;;;10.00;99.90;;;;;;5088394;28;20029;-87
2021/11/02 11:33:34;;;;;;;3.03;1.67;;;11.70;99.90;;;;;;5086934;28;20068;-87
2021/11/02 11:36:05;;;;;;;3.95;1.20;;;10.00;99.90;;;;;;5082072;28;20075;-88
2021/11/02 11:38:42;;;;;;;3.00;1.50;;;9.90;99.90;;;;;;5083430;28;20028;-87
2021/11/02 11:41:11;;;;;;;2.35;1.13;;;13.20;99.90;;;;;;5080721;28;20024;-88
2021/11/02 11:43:40;;;;;;;2.17;1.25;;;9.90;99.90;;;;;;5078900;28;20279;-87
2021/11/02 11:46:05;;;;;;;2.22;1.10;;;10.00;99.90;;;;;;5094398;28;20063;-89
2021/11/02 11:48:38;;;;;;;2.67;1.40;;;10.00;99.90;;;;;;5082409;28;20032;-87
2021/11/02 11:51:04;;;;;;;2.05;1.30;;;12.50;99.90;;;;;;5072537;28;20047;-88
2021/11/02 11:53:35;;;;;;;2.50;1.40;;;11.90;99.90;;;;;;5073662;28;20167;-86
2021/11/02 11:56:15;;;;;;;4.15;1.05;;;10.50;99.90;;;;;;5079636;28;20067;-87
2021/11/02 11:58:54;;;;;;;2.73;1.33;;;10.00;99.90;;;;;;5081628;28;20052;-86
2021/11/02 12:01:34;;;;;;;1.45;0.90;;;10.00;99.90;;;;;;5087997;28;20030;-85
2021/11/02 12:04:06;;;;;;;4.05;1.40;;;10.00;99.90;;;;;;5082664;28;20021;-88
2021/11/02 12:06:50;;;;;;;2.92;1.33;;;9.90;99.90;;;;;;5090903;28;20059;-87
2021/11/02 12:09:29;;;;;;;3.75;1.42;;;10.00;99.90;;;;;;5085493;28;20025;-89
2021/11/02 12:12:02;;;;;;;2.08;1.10;;;9.90;99.90;;;;;;5070505;28;20067;-90
2021/11/02 12:14:30;;;;;;;3.20;1.30;;;9.90;99.90;;;;;;5081499;28;20576;-90
2021/11/02 12:17:01;;;;;;;1.50;1.00;;;10.60;99.90;;;;;;5055687;28;20075;-87
2021/11/02 12:19:34;;;;;;;3.65;1.08;;;9.40;99.90;;;;;;5069002;28;20361;-88
2021/11/02 12:22:05;;;;;;;1.88;1.10;;;9.90;99.90;;;;;;5070574;28;20039;-90
2021/11/02 12:24:33;;;;;;;2.47;1.27;;;9.90;99.90;;;;;;5071213;28;20107;-89
2021/11/02 12:27:09;;;;;;;3.58;1.70;;;9.90;99.90;;;;;;5071889;28;20040;-87
2021/11/02 12:29:38;;;;;;;1.52;0.93;;;10.00;99.90;;;;;;5079419;28;20039;-89
2021/11/02 12:32:05;;;;;;;2.17;1.05;;;10.00;99.90;;;;;;5076467;28;20032;-87
2021/11/02 12:35:05;;;;;;;1.92;1.30;;;10.10;99.90;;;;;;5078278;28;20024;-90
2021/11/02 12:37:34;;;;;;;1.73;1.02;;;10.10;99.90;;;;;;5088563;28;20036;-88
2021/11/02 12:40:18;;;;;;;2.97;1.55;;;10.20;99.90;;;;;;5078655;28;20034;-88
2021/11/02 12:42:44;;;;;;;3.40;1.77;;;10.20;99.90;;;;;;5082167;28;20032;-87
2021/11/02 12:45:12;;;;;;;3.35;1.40;;;10.30;99.90;;;;;;5077600;28;20029;-85
2021/11/02 12:47:38;;;;;;;3.00;1.48;;;10.30;99.90;;;;;;5076882;28;20031;-88
2021/11/02 12:50:06;;;;;;;2.72;1.45;;;11.80;99.90;;;;;;5081083;28;20116;-88
2021/11/02 12:52:35;;;;;;;2.47;1.80;;;10.50;99.90;;;;;;5077919;28;20052;-88
2021/11/02 12:55:06;;;;;;;2.97;1.67;;;10.60;99.90;;;;;;5075957;28;20111;-88
2021/11/02 12:57:36;;;;;;;2.92;2.00;;;9.90;99.90;;;;;;5073079;28;20038;-85
2021/11/02 13:00:05;;;;;;;;;;;12.10;99.90;;;;;;5078694;28;20028;-85
2021/11/02 13:02:36;;;;;;;4.07;2.10;;;10.50;99.90;;;;;;5081264;28;19936;-89
2021/11/02 13:05:13;;;;;;;4.00;2.35;;;10.50;99.90;;;;;;5077407;28;20032;-88
2021/11/02 13:07:41;;;;;;;5.80;1.73;;;10.50;99.90;;;;;;5072516;28;20104;-86
2021/11/02 13:10:19;;;;;;;4.35;1.90;;;10.40;99.90;;;;;;5087943;28;20024;-87
2021/11/02 13:12:48;;;;;;;3.38;2.00;;;10.30;99.90;;;;;;5075487;28;20025;-89
2021/11/02 13:15:14;;;;;;;2.40;1.10;;;10.20;99.90;;;;;;5073156;28;20093;-89
2021/11/02 13:17:51;;;;;;;2.05;1.10;;;10.10;99.90;;;;;;5089986;28;20028;-87
2021/11/02 13:20:35;;;;;;;1.15;0.77;;;10.00;99.90;;;;;;5075627;28;20504;-87
2021/11/02 13:23:02;;;;;;;3.25;1.42;;;10.10;99.90;;;;;;5086134;28;20033;-86
2021/11/02 13:25:39;;;;;;;2.60;1.10;;;10.20;99.90;;;;;;5073243;28;20024;-88
2021/11/02 13:28:06;;;;;;;2.75;0.90;;;;;;;;;;5070239;28;20381;-86
2021/11/02 13:30:46;;;;;;;2.00;0.90;;;10.20;99.90;;;;;;5070575;28;20119;-86
2021/11/02 13:33:19;;;;;;;2.40;1.10;;;11.40;99.90;;;;;;5071125;28;20030;-87
2021/11/02 13:35:45;;;;;;;2.33;1.20;;;;;;;;;;5073737;28;20502;-87
2021/11/02 13:38:29;;;;;;;4.35;1.60;;;10.00;99.90;;;;;;5078224;28;20035;-90
2021/11/02 13:41:02;;;;;;;1.85;1.10;;;10.10;99.90;;;;;;5091879;28;20041;-87
2021/11/02 13:43:35;;;;;;;3.75;1.00;;;10.10;99.90;;;;;;5096682;28;20020;-88
2021/11/02 13:46:03;;;;;;;1.88;0.80;;;10.10;99.90;;;;;;5085928;28;20020;-88
2021/11/02 13:48:30;;;;;;;3.83;0.88;;;10.20;99.90;;;;;;5086386;28;20012;-88
2021/11/02 13:50:57;;;;;;;1.67;0.70;;;10.30;99.90;;;;;;5088294;28;20020;-89
2021/11/02 13:53:23;;;;;;;2.38;0.90;;;10.40;99.90;;;;;;5077811;28;20005;-89
2021/11/02 13:55:50;;;;;;;1.42;0.73;;;10.60;99.90;;;;;;5080765;28;20089;-89
2021/11/02 13:58:16;;;;;;;2.00;0.73;;;10.10;99.90;;;;;;5080897;28;20028;-88
2021/11/02 14:00:46;;;;;;;1.33;0.80;;;10.60;99.90;;;;;;5073085;28;20032;-88
2021/11/02 14:03:20;;;;;;;1.48;0.70;;;10.60;99.90;;;;;;5074468;28;20345;-86
2021/11/02 14:05:46;;;;;;;3.47;0.98;;;10.60;99.90;;;;;;5065580;28;20033;-89
2021/11/02 14:08:17;;;;;;;3.72;1.10;;;11.10;99.90;;;;;;5072715;28;20029;-86
2021/11/02 14:10:57;;;;;;;2.10;1.10;;;10.50;99.90;;;;;;5075660;28;20050;-85
2021/11/02 14:13:46;;;;;;;3.55;1.25;;;10.60;99.90;;;;;;5074945;28;20032;-86
2021/11/02 14:16:14;;;;;;;2.30;0.77;;;10.50;99.90;;;;;;5078032;28;20032;-87
2021/11/02 14:18:40;;;;;;;2.42;0.80;;;10.50;99.90;;;;;;5070873;28;20040;-90
2021/11/02 14:21:11;;;;;;;2.13;0.98;;;11.90;99.90;;;;;;5072701;28;20389;-88
2021/11/02 14:23:39;;;;;;;2.20;0.90;;;10.40;99.90;;;;;;5076717;28;20296;-89
2021/11/02 14:26:25;;;;;;;1.30;0.80;;;12.70;99.90;;;;;;5080552;28;20044;-88
2021/11/02 14:28:59;;;;;;;2.92;0.80;;;10.30;99.90;;;;;;5081595;28;20029;-89
2021/11/02 14:31:40;;;;;;;2.17;1.20;;;10.20;99.90;;;;;;5074465;28;20020;-90
2021/11/02 14:34:08;;;;;;;4.00;1.20;;;11.50;99.90;;;;;;5073014;28;20039;-89
2021/11/02 14:36:40;;;;;;;2.00;1.02;;;10.00;99.90;;;;;;5071943;28;20032;-89
2021/11/02 14:39:13;;;;;;;3.00;1.30;;;10.10;99.90;;;;;;5069623;28;20482;-88
2021/11/02 14:41:50;;;;;;;2.85;0.95;;;10.00;99.90;;;;;;5069205;28;20066;-88
2021/11/02 14:44:27;;;;;;;3.47;1.20;;;11.80;99.90;;;;;;5061592;28;20031;-87
2021/11/02 14:46:59;;;;;;;1.88;1.00;;;10.20;99.90;;;;;;5069043;28;20047;-86
2021/11/02 14:49:30;;;;;;;7.93;1.50;;;10.30;99.90;;;;;;5063238;28;20063;-90
2021/11/02 14:52:01;;;;;;;2.47;1.05;;;10.00;99.90;;;;;;5067972;28;20029;-89
2021/11/02 14:54:34;;;;;;;4.32;1.58;;;10.00;99.90;;;;;;5067023;28;20040;-88
2021/11/02 14:57:18;;;;;;;2.58;1.10;;;12.00;99.90;;;;;;5066847;28;20029;-86
2021/11/02 14:59:54;;;;;;;2.13;1.10;;;10.20;99.90;;;;;;5086328;28;20036;-89
2021/11/02 15:02:42;;;;;;;3.55;1.35;;;10.00;99.90;;;;;;5058976;28;20032;-88
2021/11/02 15:05:18;;;;;;;3.30;1.50;;;10.00;99.90;;;;;;5056915;28;20031;-86
2021/11/02 15:07:47;;;;;;;3.47;1.27;;;10.10;99.90;;;;;;5063224;28;20029;-87
2021/11/02 15:10:16;;;;;;;5.20;1.30;;;10.00;99.90;;;;;;5066545;28;20025;-84
2021/11/02 15:12:44;;;;;;;1.35;0.90;;;10.00;99.90;;;;;;5066136;28;20016;-85
2021/11/02 15:15:10;;;;;;;2.50;1.20;;;10.20;99.90;;;;;;5070813;28;20490;-85
2021/11/02 15:17:39;;;;;;;2.45;1.05;;;10.80;99.90;;;;;;5065553;28;20044;-86
2021/11/02 15:20:06;;;;;;;4.32;1.42;;;10.20;99.90;;;;;;5068870;28;20029;-89
2021/11/02 15:22:32;;;;;;;2.03;1.02;;;10.20;99.90;;;;;;5067192;28;20332;-90
2021/11/02 15:25:00;;;;;;;2.65;1.30;;;11.20;99.90;;;;;;5071634;28;20166;-90
2021/11/02 15:27:32;;;;;;;3.55;1.15;;;10.70;99.90;;;;;;5068036;28;20036;-84
2021/11/02 15:30:01;;;;;;;2.45;1.10;;;11.50;99.90;;;;;;5062060;28;20033;-84
2021/11/02 15:32:34;;;;;;;1.42;0.90;;;11.30;99.90;;;;;;5072693;28;20025;-86
2021/11/02 15:35:02;;;;;;;3.75;1.23;;;10.00;99.90;;;;;;5070680;28;20123;-88
2021/11/02 15:37:34;;;;;;;1.92;1.00;;;10.00;99.90;;;;;;5066562;28;20031;-85
2021/11/02 15:40:10;;;;;;;3.70;1.23;;;10.70;99.90;;;;;;5065941;28;20051;-86
2021/11/02 15:42:40;;;;;;;1.58;0.85;;;9.90;99.90;;;;;;5085742;28;20033;-86
2021/11/02 15:45:45;;;;;;;1.40;0.90;;;9.90;99.90;;;;;;5067556;28;20077;-84
2021/11/02 15:48:18;;;;;;;3.17;1.00;;;9.80;99.90;;;;;;5070097;28;20036;-86
2021/11/02 15:50:47;;;;;;;2.70;1.02;;;9.80;99.90;;;;;;5071875;28;20050;-86
2021/11/02 15:53:17;;;;;;;2.28;0.80;;;10.90;99.90;;;;;;5064868;28;20162;-88
2021/11/02 15:55:43;;;;;;;3.50;1.17;;;9.90;99.90;;;;;;5071799;28;20174;-86
2021/11/02 15:58:12;;;;;;;1.55;0.95;;;9.80;99.90;;;;;;5064399;28;20454;-87
2021/11/02 16:00:43;;;;;;;4.60;1.00;;;10.00;99.90;;;;;;5071329;28;20036;-86
2021/11/02 16:03:10;;;;;;;3.25;0.90;;;9.70;99.90;;;;;;5065214;28;20656;-86
2021/11/02 16:05:37;;;;;;;2.13;0.90;;;10.70;99.90;;;;;;5070595;28;20352;-89
2021/11/02 16:08:22;;;;;;;3.90;0.93;;;10.60;99.90;;;;;;5073148;28;20028;-85
2021/11/02 16:10:52;;;;;;;2.55;1.00;;;9.70;99.90;;;;;;5064607;28;20024;-85
2021/11/02 16:13:26;;;;;;;1.15;0.82;;;9.70;99.90;;;;;;5064102;28;20021;-87
2021/11/02 16:15:53;;;;;;;3.35;1.17;;;9.60;99.90;;;;;;5070889;28;20528;-86
2021/11/02 16:18:23;;;;;;;3.15;1.08;;;10.00;99.90;;;;;;5070645;28;20800;-85
2021/11/02 16:20:51;;;;;;;4.35;1.40;;;9.60;99.90;;;;;;5061177;28;20043;-87
2021/11/02 16:23:20;;;;;;;2.10;1.10;;;9.60;99.90;;;;;;5070110;28;20115;-83
2021/11/02 16:25:49;;;;;;;2.50;1.15;;;10.30;99.90;;;;;;5070376;28;20574;-88
2021/11/02 16:28:19;;;;;;;2.00;1.13;;;11.30;99.90;;;;;;5087496;28;20032;-88
2021/11/02 16:30:59;;;;;;;2.85;1.40;;;10.80;99.90;;;;;;5067678;28;20045;-85
2021/11/02 16:33:46;;;;;;;3.08;1.52;;;9.50;99.90;;;;;;5071257;28;20035;-86
2021/11/02 16:36:16;;;;;;;7.65;3.25;;;9.50;99.90;;;;;;5069833;28;20120;-83
2021/11/02 16:38:43;;;;;;;2.63;1.50;;;9.50;99.90;;;;;;5066141;28;20096;-85
2021/11/02 16:41:23;;;;;;;15.32;7.07;;;9.30;99.90;;;;;;5066471;28;20037;-84
2021/11/02 16:44:04;;;;;;;1.98;1.20;;;9.40;99.90;;;;;;5073219;28;20503;-85
2021/11/02 16:46:34;;;;;;;3.17;1.48;;;9.50;99.90;;;;;;5070738;28;20060;-83
2021/11/02 16:49:12;;;;;;;2.60;1.13;;;9.50;99.90;;;;;;5070081;28;20464;-87
2021/11/02 16:51:58;;;;;;;5.28;1.60;;;9.50;99.90;;;;;;5067465;28;20037;-86
2021/11/02 16:54:26;;;;;;;3.83;2.22;;;9.50;99.90;;;;;;5085778;28;20071;-86
2021/11/02 16:57:16;;;;;;;3.95;1.77;;;10.10;99.90;;;;;;5062381;28;20056;-86
2021/11/02 16:59:55;;;;;;;4.25;3.10;;;9.50;99.90;;;;;;5072939;28;20042;-86
2021/11/02 17:02:39;;;;;;;4.70;2.28;;;9.50;99.90;;;;;;5066494;28;20028;-86
2021/11/02 17:05:10;;;;;;;3.60;2.00;;;9.50;99.90;;;;;;5067753;28;20075;-83
2021/11/02 17:07:40;;;;;;;2.88;1.70;;;9.30;99.90;;;;;;5070549;28;20035;-87
2021/11/02 17:10:30;;;;;;;5.38;2.00;;;9.40;99.90;;;;;;5068071;28;20032;-87
2021/11/02 17:13:27;;;;;;;3.70;2.15;;;9.30;99.90;;;;;;5069695;28;20029;-89
2021/11/02 17:16:03;;;;;;;3.47;2.10;;;9.30;99.90;;;;;;5062019;28;20040;-87
2021/11/02 17:18:46;;;;;;;4.47;2.40;;;9.30;99.90;;;;;;5084268;28;20122;-83
2021/11/02 17:21:16;;;;;;;6.28;2.65;;;9.40;99.90;;;;;;5065978;28;20272;-85
2021/11/02 17:23:43;;;;;;;4.47;1.90;;;9.40;99.90;;;;;;5065560;28;20466;-86
2021/11/02 17:26:10;;;;;;;5.72;3.53;;;9.70;99.90;;;;;;5068940;28;20515;-87
2021/11/02 17:28:37;;;;;;;5.25;2.53;;;9.50;99.90;;;;;;5058332;28;20056;-88
2021/11/02 17:31:04;;;;;;;5.72;3.28;;;9.30;99.90;;;;;;5066175;28;20185;-86
2021/11/02 17:33:33;;;;;;;5.75;2.42;;;9.50;99.90;;;;;;5062603;28;20063;-84
2021/11/02 17:36:05;;;;;;;3.95;2.00;;;9.40;99.90;;;;;;5061091;28;20052;-86
2021/11/02 17:38:32;;;;;;;4.00;2.42;;;9.40;99.90;;;;;;5064833;28;20032;-84
2021/11/02 17:41:01;;;;;;;4.90;2.35;;;9.40;99.90;;;;;;5057474;28;20028;-85
2021/11/02 17:43:27;;;;;;;7.10;2.78;;;9.30;99.90;;;;;;5058905;28;20028;-88
2021/11/02 17:45:53;;;;;;;3.88;2.72;;;10.80;99.90;;;;;;5058234;28;20032;-88
2021/11/02 17:48:20;;;;;;;5.57;3.78;;;9.30;99.90;;;;;;5076360;28;20078;-88
2021/11/02 17:50:47;;;;;;;5.10;2.83;;;9.30;99.90;;;;;;5062601;28;20021;-85
2021/11/02 17:53:13;;;;;;;6.45;2.30;;;9.30;99.90;;;;;;5060101;28;20554;-89
2021/11/02 17:55:38;;;;;;;4.85;1.77;;;9.30;99.90;;;;;;5061315;28;20115;-87
2021/11/02 17:58:05;;;;;;;3.80;1.73;;;9.30;99.90;;;;;;5058367;28;20110;-89
2021/11/02 18:00:31;;;;;;;7.80;3.95;;;9.20;99.90;;;;;;5064909;28;20024;-87
2021/11/02 18:02:58;;;;;;;3.58;1.70;;;9.20;99.90;;;;;;5059849;28;20036;-86
2021/11/02 18:05:26;;;;;;;4.10;2.03;;;9.80;99.90;;;;;;5071410;28;20086;-87
2021/11/02 18:07:52;;;;;;;3.25;2.20;;;12.00;99.90;;;;;;5079096;28;20027;-86
2021/11/02 18:10:19;;;;;;;4.50;2.20;;;9.20;99.90;;;;;;5065474;28;20029;-87
2021/11/02 18:12:45;;;;;;;7.20;3.13;;;9.20;99.90;;;;;;5068343;28;20075;-87
2021/11/02 18:15:14;;;;;;;4.22;2.30;;;9.20;99.90;;;;;;5076009;28;20056;-87